createdAt,value
2023-02-05T00:01:18.678Z,5.47
2023-02-05T00:03:47.210Z,4.50
2023-02-05T00:06:15.765Z,3.00
2023-02-05T00:08:44.340Z,3.35
2023-02-05T00:11:14.371Z,4.50
2023-02-05T00:13:44.400Z,3.60
2023-02-05T00:16:15.433Z,4.00
2023-02-05T00:21:13.259Z,3.72
2023-02-05T00:23:41.937Z,3.50
2023-02-05T00:26:10.815Z,4.63
2023-02-05T00:28:40.883Z,4.43
2023-02-05T00:31:11.616Z,5.30
2023-02-05T00:33:40.621Z,4.35
2023-02-05T00:36:12.775Z,7.28
2023-02-05T00:38:41.900Z,5.43
2023-02-05T00:41:11.176Z,3.15
2023-02-05T00:43:42.244Z,4.22
2023-02-05T00:46:12.028Z,4.13
2023-02-05T00:48:41.550Z,6.22
2023-02-05T00:51:10.777Z,3.13
2023-02-05T00:53:39.688Z,4.45
2023-02-05T00:56:08.528Z,4.97
2023-02-05T00:58:37.283Z,6.00
2023-02-05T01:01:07.658Z,6.90
2023-02-05T01:03:36.520Z,4.10
2023-02-05T01:06:06.104Z,4.38
2023-02-05T01:08:34.756Z,3.65
2023-02-05T01:11:07.479Z,3.88
2023-02-05T01:13:36.241Z,4.18
2023-02-05T01:16:06.836Z,4.85
2023-02-05T01:18:35.430Z,4.47
2023-02-05T01:21:04.134Z,4.60
2023-02-05T01:23:32.854Z,5.90
2023-02-05T01:26:01.449Z,6.65
2023-02-05T01:28:29.981Z,6.10
2023-02-05T01:30:58.657Z,3.22
2023-02-05T01:33:28.875Z,5.50
2023-02-05T01:35:57.519Z,3.00
2023-02-05T01:38:26.052Z,4.15
2023-02-05T01:40:54.698Z,4.03
2023-02-05T01:43:23.252Z,2.42
2023-02-05T01:46:05.097Z,5.30
2023-02-05T01:48:39.840Z,4.38
2023-02-05T01:51:12.431Z,4.00
2023-02-05T01:53:41.883Z,4.78
2023-02-05T01:56:14.242Z,5.10
2023-02-05T01:58:49.963Z,4.97
2023-02-05T02:01:18.519Z,4.75
2023-02-05T02:03:50.851Z,3.22
2023-02-05T02:06:19.465Z,4.20
2023-02-05T02:08:48.078Z,2.83
2023-02-05T02:11:19.670Z,4.30
2023-02-05T02:13:49.879Z,5.93
2023-02-05T02:16:19.004Z,5.50
2023-02-05T02:18:49.490Z,5.22
2023-02-05T02:21:46.582Z,4.30
2023-02-05T02:24:43.943Z,4.05
2023-02-05T02:27:46.666Z,3.50
2023-02-05T02:30:22.333Z,5.50
2023-02-05T02:32:59.724Z,4.88
2023-02-05T02:35:34.049Z,5.18
2023-02-05T02:38:10.381Z,5.88
2023-02-05T02:40:43.866Z,4.82
2023-02-05T02:43:21.089Z,4.40
2023-02-05T02:45:54.492Z,5.50
2023-02-05T02:48:26.658Z,4.28
2023-02-05T02:50:57.499Z,4.82
2023-02-05T02:53:30.663Z,5.30
2023-02-05T02:56:02.359Z,4.60
2023-02-05T02:58:39.414Z,7.88
2023-02-05T03:01:11.694Z,4.05
2023-02-05T03:03:44.382Z,3.50
2023-02-05T03:06:15.937Z,4.97
2023-02-05T03:08:52.191Z,3.95
2023-02-05T03:11:20.777Z,3.80
2023-02-05T03:13:50.940Z,5.00
2023-02-05T03:16:24.551Z,4.65
2023-02-05T03:18:54.837Z,8.45
2023-02-05T03:21:27.461Z,4.97
2023-02-05T03:23:56.179Z,4.43
2023-02-05T03:26:27.291Z,3.80
2023-02-05T03:29:07.980Z,4.32
2023-02-05T03:31:51.020Z,3.65
2023-02-05T03:34:31.120Z,2.92
2023-02-05T03:37:11.607Z,4.78
2023-02-05T03:39:50.857Z,3.83
2023-02-05T03:42:33.420Z,5.18
2023-02-05T03:45:39.328Z,3.47
2023-02-05T03:48:21.196Z,2.40
2023-02-05T03:50:55.710Z,4.97
2023-02-05T03:53:35.390Z,4.50
2023-02-05T03:56:08.649Z,5.22
2023-02-05T03:58:42.152Z,4.43
2023-02-05T04:01:13.593Z,3.83
2023-02-05T04:03:47.495Z,5.13
2023-02-05T04:06:20.033Z,4.57
2023-02-05T04:08:58.138Z,6.00
2023-02-05T04:11:27.680Z,3.70
2023-02-05T04:13:59.633Z,4.95
2023-02-05T04:16:30.374Z,4.68
2023-02-05T04:19:01.464Z,3.67
2023-02-05T04:21:36.218Z,5.78
2023-02-05T04:24:12.551Z,4.13
2023-02-05T04:26:42.830Z,3.80
2023-02-05T04:29:11.626Z,4.15
2023-02-05T04:31:49.884Z,3.85
2023-02-05T04:34:22.093Z,3.20
2023-02-05T04:36:59.540Z,3.42
2023-02-05T04:39:33.852Z,3.25
2023-02-05T04:42:03.290Z,4.30
2023-02-05T04:44:32.291Z,4.75
2023-02-05T04:47:07.938Z,4.20
2023-02-05T04:49:37.088Z,4.75
2023-02-05T04:52:06.108Z,5.85
2023-02-05T04:54:38.512Z,4.70
2023-02-05T04:57:07.488Z,3.22
2023-02-05T04:59:39.570Z,4.95
2023-02-05T05:02:10.048Z,3.78
2023-02-05T05:04:40.604Z,4.50
2023-02-05T05:07:11.093Z,4.00
2023-02-05T05:09:40.006Z,6.32
2023-02-05T05:12:09.035Z,4.40
2023-02-05T05:14:39.060Z,7.07
2023-02-05T05:17:07.981Z,4.07
2023-02-05T05:19:41.110Z,2.95
2023-02-05T05:22:13.358Z,4.93
2023-02-05T05:24:42.348Z,3.78
2023-02-05T05:27:13.882Z,3.63
2023-02-05T05:29:46.787Z,3.47
2023-02-05T05:32:19.204Z,5.70
2023-02-05T05:34:52.149Z,4.25
2023-02-05T05:37:21.199Z,5.18
2023-02-05T05:40:13.275Z,8.55
2023-02-05T05:43:04.389Z,3.92
2023-02-05T05:45:38.413Z,3.88
2023-02-05T05:48:10.230Z,4.78
2023-02-05T05:50:41.090Z,6.65
2023-02-05T05:53:14.899Z,5.97
2023-02-05T05:55:45.073Z,4.45
2023-02-05T05:58:16.998Z,6.03
2023-02-05T06:00:46.202Z,4.63
2023-02-05T06:03:15.160Z,4.55
2023-02-05T06:05:48.246Z,4.13
2023-02-05T06:08:19.849Z,4.85
2023-02-05T06:10:48.878Z,5.10
2023-02-05T06:13:26.162Z,4.90
2023-02-05T06:15:55.644Z,4.25
2023-02-05T06:18:24.856Z,5.85
2023-02-05T06:20:57.589Z,4.35
2023-02-05T06:23:32.649Z,4.65
2023-02-05T06:26:02.283Z,8.20
2023-02-05T06:28:31.426Z,8.57
2023-02-05T06:31:03.347Z,10.20
2023-02-05T06:33:35.911Z,6.03
2023-02-05T06:36:07.031Z,5.30
2023-02-05T06:38:36.103Z,3.55
2023-02-05T06:41:08.067Z,5.65
2023-02-05T06:43:36.986Z,5.03
2023-02-05T06:46:06.163Z,6.90
2023-02-05T06:48:37.852Z,7.53
2023-02-05T06:51:08.726Z,7.40
2023-02-05T06:53:37.611Z,4.45
2023-02-05T06:56:10.271Z,7.20
2023-02-05T06:58:39.163Z,6.82
2023-02-05T07:01:08.217Z,5.22
2023-02-05T07:03:37.076Z,4.32
2023-02-05T07:06:08.097Z,2.95
2023-02-05T07:11:08.287Z,5.07
2023-02-05T07:13:37.229Z,4.03
2023-02-05T07:16:09.436Z,3.60
2023-02-05T07:18:41.392Z,4.53
2023-02-05T07:21:18.838Z,4.60
2023-02-05T07:23:49.593Z,3.65
2023-02-05T07:26:21.221Z,2.95
2023-02-05T07:28:52.909Z,4.30
2023-02-05T07:31:22.479Z,4.32
2023-02-05T07:33:51.828Z,5.57
2023-02-05T07:36:27.610Z,5.82
2023-02-05T07:38:59.552Z,3.83
2023-02-05T07:41:30.634Z,3.58
2023-02-05T07:43:59.760Z,4.50
2023-02-05T07:46:28.381Z,5.10
2023-02-05T07:48:57.075Z,22.75
2023-02-05T07:51:27.351Z,5.43
2023-02-05T07:53:56.145Z,4.32
2023-02-05T07:56:25.996Z,3.72
2023-02-05T07:58:54.558Z,5.15
2023-02-05T08:01:23.038Z,5.20
2023-02-05T08:03:51.822Z,5.05
2023-02-05T08:06:20.366Z,3.13
2023-02-05T08:08:50.238Z,3.30
2023-02-05T08:11:19.789Z,3.50
2023-02-05T08:13:48.503Z,3.88
2023-02-05T08:16:17.255Z,3.17
2023-02-05T08:18:50.044Z,3.17
2023-02-05T08:21:19.067Z,4.40
2023-02-05T08:23:47.585Z,4.65
2023-02-05T08:26:18.657Z,6.05
2023-02-05T08:31:19.232Z,12.85
2023-02-05T08:33:50.923Z,7.03
2023-02-05T08:36:19.632Z,10.82
2023-02-05T08:38:48.216Z,3.25
2023-02-05T08:41:18.570Z,6.50
2023-02-05T08:43:50.072Z,5.75
2023-02-05T08:46:20.861Z,7.30
2023-02-05T08:48:49.985Z,6.22
2023-02-05T08:51:19.989Z,3.90
2023-02-05T08:53:48.870Z,4.32
2023-02-05T08:56:20.280Z,3.28
2023-02-05T08:58:49.089Z,3.13
2023-02-05T09:01:18.418Z,4.30
2023-02-05T09:03:47.801Z,9.85
2023-02-05T09:06:17.496Z,4.72
2023-02-05T09:08:46.019Z,9.40
2023-02-05T09:11:14.720Z,58.85
2023-02-05T09:13:44.749Z,40.53
2023-02-05T09:16:13.384Z,13.98
2023-02-05T09:18:41.816Z,4.38
2023-02-05T09:21:12.018Z,7.25
2023-02-05T09:23:40.524Z,7.72
2023-02-05T09:26:09.685Z,8.88
2023-02-05T09:28:38.894Z,8.18
2023-02-05T09:31:11.901Z,5.97
2023-02-05T09:33:40.698Z,7.45
2023-02-05T09:36:10.101Z,6.07
2023-02-05T09:38:38.718Z,10.05
2023-02-05T09:41:11.668Z,9.75
2023-02-05T09:43:52.965Z,8.48
2023-02-05T09:46:31.625Z,9.45
2023-02-05T09:49:04.902Z,11.02
2023-02-05T09:51:36.967Z,9.00
2023-02-05T09:54:16.968Z,11.82
2023-02-05T09:56:47.419Z,9.43
2023-02-05T09:59:18.920Z,9.35
2023-02-05T10:01:52.958Z,13.73
2023-02-05T10:04:21.757Z,11.27
2023-02-05T10:07:17.493Z,11.23
2023-02-05T10:10:18.458Z,12.85
2023-02-05T10:13:05.121Z,13.65
2023-02-05T10:15:47.762Z,9.40
2023-02-05T10:18:28.344Z,11.63
2023-02-05T10:21:08.339Z,16.67
2023-02-05T10:23:56.280Z,13.35
2023-02-05T10:26:29.706Z,12.00
2023-02-05T10:29:32.845Z,11.10
2023-02-05T10:32:16.522Z,11.52
2023-02-05T10:34:55.069Z,10.75
2023-02-05T10:37:32.949Z,12.73
2023-02-05T10:40:01.646Z,12.15
2023-02-05T10:42:35.549Z,14.18
2023-02-05T10:45:14.271Z,12.52
2023-02-05T10:47:54.694Z,12.63
2023-02-05T10:50:31.848Z,13.35
2023-02-05T10:53:00.516Z,12.43
2023-02-05T10:55:30.043Z,13.30
2023-02-05T10:57:58.534Z,12.93
2023-02-05T11:00:27.147Z,14.57
2023-02-05T11:02:58.838Z,12.38
2023-02-05T11:05:36.248Z,15.00
2023-02-05T11:08:05.562Z,14.80
2023-02-05T11:10:36.581Z,12.82
2023-02-05T11:13:16.439Z,11.80
2023-02-05T11:15:56.623Z,12.32
2023-02-05T11:18:29.374Z,14.55
2023-02-05T11:21:01.930Z,14.93
2023-02-05T11:23:33.624Z,12.85
2023-02-05T11:26:08.920Z,15.57
2023-02-05T11:28:39.940Z,11.02
2023-02-05T11:33:51.991Z,12.77
2023-02-05T11:38:56.751Z,13.73
2023-02-05T11:41:30.835Z,14.82
2023-02-05T11:44:02.369Z,15.30
2023-02-05T11:46:36.542Z,16.15
2023-02-05T11:49:06.138Z,14.60
2023-02-05T11:51:45.700Z,12.52
2023-02-05T11:54:22.280Z,14.00
2023-02-05T11:57:05.245Z,13.45
2023-02-05T11:59:34.690Z,9.85
2023-02-05T12:02:33.084Z,9.32
2023-02-05T12:05:09.015Z,10.15
2023-02-05T12:07:45.480Z,8.45
2023-02-05T12:10:31.073Z,8.93
2023-02-05T12:13:08.620Z,10.18
2023-02-05T12:15:46.721Z,7.35
2023-02-05T12:18:30.885Z,7.10
2023-02-05T12:21:13.139Z,12.43
2023-02-05T12:24:32.504Z,8.25
2023-02-05T12:27:18.821Z,8.13
2023-02-05T12:30:05.655Z,7.13
2023-02-05T12:32:46.529Z,10.15
2023-02-05T12:35:32.679Z,8.43
2023-02-05T12:38:27.260Z,10.18
2023-02-05T12:41:12.602Z,8.13
2023-02-05T12:43:54.483Z,6.80
2023-02-05T12:46:45.408Z,7.28
2023-02-05T12:52:12.941Z,6.40
2023-02-05T12:55:06.225Z,6.10
2023-02-05T12:57:44.075Z,11.60
2023-02-05T13:00:17.674Z,9.05
2023-02-05T13:02:58.920Z,5.25
2023-02-05T13:08:12.180Z,7.03
2023-02-05T13:10:50.700Z,8.13
2023-02-05T13:13:32.679Z,6.80
2023-02-05T13:16:07.305Z,5.75
2023-02-05T13:18:42.790Z,5.55
2023-02-05T13:21:48.886Z,7.32
2023-02-05T13:24:46.913Z,6.72
2023-02-05T13:27:44.141Z,5.13
2023-02-05T13:30:18.386Z,7.25
2023-02-05T13:32:51.804Z,4.35
2023-02-05T13:35:22.964Z,9.48
2023-02-05T13:38:23.230Z,6.90
2023-02-05T13:41:17.945Z,6.53
2023-02-05T13:44:09.664Z,6.95
2023-02-05T13:47:11.789Z,5.82
2023-02-05T13:50:12.486Z,4.68
2023-02-05T13:53:06.496Z,3.47
2023-02-05T13:55:55.768Z,4.03
2023-02-05T13:58:27.600Z,4.85
2023-02-05T14:01:03.733Z,3.95
2023-02-05T14:03:48.782Z,4.45
2023-02-05T14:06:23.976Z,4.05
2023-02-05T14:09:09.929Z,3.55
2023-02-05T14:11:51.054Z,7.97
2023-02-05T14:16:53.891Z,4.30
2023-02-05T14:19:27.221Z,5.22
2023-02-05T14:22:07.518Z,7.03
2023-02-05T14:24:48.384Z,8.60
2023-02-05T14:27:55.767Z,5.88
2023-02-05T14:30:59.176Z,10.35
2023-02-05T14:37:06.012Z,5.88
2023-02-05T14:39:38.466Z,7.47
2023-02-05T14:42:13.366Z,9.30
2023-02-05T14:44:57.458Z,6.53
2023-02-05T14:47:33.246Z,9.20
2023-02-05T14:50:13.009Z,7.95
2023-02-05T14:52:49.418Z,9.80
2023-02-05T14:55:37.647Z,8.90
2023-02-05T14:58:11.010Z,6.22
2023-02-05T15:00:42.034Z,5.97
2023-02-05T15:03:26.871Z,8.60
2023-02-05T15:06:09.013Z,10.02
2023-02-05T15:08:48.870Z,6.63
2023-02-05T15:11:26.683Z,7.00
2023-02-05T15:14:33.704Z,7.90
2023-02-05T15:17:40.532Z,7.93
2023-02-05T15:20:24.280Z,10.77
2023-02-05T15:22:58.095Z,6.13
2023-02-05T15:25:37.520Z,10.38
2023-02-05T15:28:19.355Z,9.55
2023-02-05T15:31:05.866Z,8.30
2023-02-05T15:33:51.316Z,7.18
2023-02-05T15:36:29.715Z,8.95
2023-02-05T15:39:08.857Z,8.00
2023-02-05T15:41:41.429Z,11.38
2023-02-05T15:44:22.472Z,11.02
2023-02-05T15:46:52.162Z,7.05
2023-02-05T15:49:30.550Z,10.32
2023-02-05T15:52:00.453Z,7.93
2023-02-05T15:54:29.920Z,10.45
2023-02-05T15:57:10.729Z,9.63
2023-02-05T15:59:41.792Z,7.78
2023-02-05T16:02:21.046Z,9.55
2023-02-05T16:04:56.232Z,8.98
2023-02-05T16:07:27.150Z,10.40
2023-02-05T16:12:33.129Z,10.05
2023-02-05T16:15:03.450Z,10.15
2023-02-05T16:17:40.974Z,8.67
2023-02-05T16:20:21.948Z,8.75
2023-02-05T16:22:55.805Z,7.93
2023-02-05T16:25:43.546Z,9.93
2023-02-05T16:28:20.794Z,6.55
2023-02-05T16:30:53.708Z,10.77
2023-02-05T16:33:35.128Z,11.00
2023-02-05T16:36:06.802Z,9.52
2023-02-05T16:38:37.062Z,12.70
2023-02-05T16:41:21.018Z,10.10
2023-02-05T16:43:53.598Z,11.57
2023-02-05T16:46:27.976Z,7.22
2023-02-05T16:49:04.551Z,12.13
2023-02-05T16:51:55.536Z,8.75
2023-02-05T16:54:30.970Z,10.05
2023-02-05T16:57:08.016Z,8.52
2023-02-05T16:59:49.440Z,10.40
2023-02-05T17:02:29.601Z,10.55
2023-02-05T17:05:00.197Z,11.43
2023-02-05T17:07:30.000Z,10.68
2023-02-05T17:10:18.166Z,15.40
2023-02-05T17:12:57.792Z,14.80
2023-02-05T17:15:35.785Z,14.45
2023-02-05T17:18:25.402Z,14.00
2023-02-05T17:21:28.003Z,15.57
2023-02-05T17:23:59.866Z,18.60
2023-02-05T17:26:31.359Z,17.60
2023-02-05T17:29:02.461Z,19.63
2023-02-05T17:31:36.813Z,16.83
2023-02-05T17:34:06.288Z,18.13
2023-02-05T17:36:35.882Z,18.67
2023-02-05T17:39:04.729Z,19.60
2023-02-05T17:41:55.902Z,18.23
2023-02-05T17:44:24.687Z,17.95
2023-02-05T17:46:55.212Z,20.98
2023-02-05T17:49:24.428Z,15.73
2023-02-05T17:51:53.148Z,18.50
2023-02-05T17:54:23.587Z,19.58
2023-02-05T17:56:54.448Z,15.23
2023-02-05T17:59:24.594Z,20.90
2023-02-05T18:01:55.401Z,16.13
2023-02-05T18:04:23.947Z,16.98
2023-02-05T18:06:54.064Z,13.90
2023-02-05T18:09:22.853Z,16.15
2023-02-05T18:11:51.296Z,16.27
2023-02-05T18:14:20.082Z,17.75
2023-02-05T18:16:49.075Z,13.65
2023-02-05T18:19:19.427Z,13.57
2023-02-05T18:21:48.593Z,16.13
2023-02-05T18:24:17.206Z,17.20
2023-02-05T18:26:48.430Z,15.32
2023-02-05T18:29:16.983Z,14.73
2023-02-05T18:31:45.773Z,14.15
2023-02-05T18:34:14.345Z,16.45
2023-02-05T18:36:44.325Z,13.30
2023-02-05T18:39:13.152Z,14.53
2023-02-05T18:41:41.752Z,14.52
2023-02-05T18:44:10.415Z,14.88
2023-02-05T18:46:40.034Z,12.90
2023-02-05T18:49:08.788Z,13.52
2023-02-05T18:51:37.567Z,15.40
2023-02-05T18:54:08.387Z,13.20
2023-02-05T18:56:37.046Z,11.52
2023-02-05T18:59:08.715Z,10.55
2023-02-05T19:01:39.935Z,11.50
2023-02-05T19:04:11.301Z,11.32
2023-02-05T19:06:41.905Z,11.90
2023-02-05T19:09:13.047Z,10.68
2023-02-05T19:11:42.090Z,11.20
2023-02-05T19:14:13.646Z,14.40
2023-02-05T19:16:45.500Z,12.77
2023-02-05T19:19:21.340Z,12.55
2023-02-05T19:21:53.835Z,11.60
2023-02-05T19:24:26.370Z,13.15
2023-02-05T19:27:00.632Z,9.52
2023-02-05T19:29:29.929Z,13.15
2023-02-05T19:31:59.010Z,9.48
2023-02-05T19:34:28.027Z,13.77
2023-02-05T19:36:56.738Z,11.55
2023-02-05T19:39:29.873Z,12.70
2023-02-05T19:41:58.455Z,10.48
2023-02-05T19:44:29.649Z,14.80
2023-02-05T19:46:58.095Z,12.32
2023-02-05T19:49:26.595Z,13.45
2023-02-05T19:51:56.583Z,14.00
2023-02-05T19:54:25.138Z,11.57
2023-02-05T19:56:55.532Z,10.90
2023-02-05T19:59:24.196Z,15.10
2023-02-05T20:01:53.414Z,10.75
2023-02-05T20:04:24.980Z,16.55
2023-02-05T20:06:57.196Z,11.52
2023-02-05T20:09:26.444Z,13.05
2023-02-05T20:11:57.199Z,14.85
2023-02-05T20:14:26.299Z,15.07
2023-02-05T20:16:55.286Z,13.90
2023-02-05T20:19:24.176Z,15.80
2023-02-05T20:21:52.761Z,14.95
2023-02-05T20:24:21.426Z,12.52
2023-02-05T20:26:50.120Z,12.45
2023-02-05T20:29:37.399Z,14.13
2023-02-05T20:32:06.613Z,11.73
2023-02-05T20:34:36.400Z,13.90
2023-02-05T20:37:07.599Z,12.52
2023-02-05T20:39:39.831Z,13.38
2023-02-05T20:42:10.778Z,14.20
2023-02-05T20:47:13.063Z,12.73
2023-02-05T20:49:43.558Z,15.35
2023-02-05T20:52:12.826Z,11.30
2023-02-05T20:54:41.720Z,13.20
2023-02-05T20:57:10.374Z,13.88
2023-02-05T20:59:40.554Z,11.38
2023-02-05T21:02:09.147Z,15.05
2023-02-05T21:04:38.381Z,11.40
2023-02-05T21:07:06.944Z,14.65
2023-02-05T21:09:35.543Z,14.75
2023-02-05T21:12:04.267Z,11.23
2023-02-05T21:14:33.071Z,15.73
2023-02-05T21:17:03.303Z,13.88
2023-02-05T21:19:31.761Z,12.40
2023-02-05T21:22:00.662Z,14.02
2023-02-05T21:24:29.211Z,14.52
2023-02-05T21:26:57.821Z,14.43
2023-02-05T21:29:26.283Z,13.40
2023-02-05T21:31:55.932Z,12.77
2023-02-05T21:34:28.050Z,13.00
2023-02-05T21:36:57.167Z,13.13
2023-02-05T21:39:25.814Z,13.45
2023-02-05T21:41:55.033Z,12.57
2023-02-05T21:44:23.988Z,12.20
2023-02-05T21:46:53.957Z,13.07
2023-02-05T21:49:22.572Z,12.50
2023-02-05T21:51:53.826Z,13.70
2023-02-05T21:54:25.711Z,14.20
2023-02-05T21:56:54.610Z,13.10
2023-02-05T21:59:23.330Z,10.77
2023-02-05T22:01:52.071Z,11.82
2023-02-05T22:04:20.571Z,13.52
2023-02-05T22:06:49.254Z,11.98
2023-02-05T22:09:19.332Z,13.23
2023-02-05T22:11:50.588Z,14.15
2023-02-05T22:14:19.314Z,14.43
2023-02-05T22:16:47.895Z,10.30
2023-02-05T22:19:16.874Z,11.40
2023-02-05T22:21:45.447Z,11.48
2023-02-05T22:24:16.716Z,13.10
2023-02-05T22:26:48.081Z,14.27
2023-02-05T22:29:18.658Z,12.63
2023-02-05T22:31:50.900Z,13.10
2023-02-05T22:34:19.661Z,16.42
2023-02-05T22:36:48.194Z,10.57
2023-02-05T22:39:17.036Z,12.43
2023-02-05T22:41:47.363Z,12.40
2023-02-05T22:44:15.898Z,12.52
2023-02-05T22:46:45.808Z,15.20
2023-02-05T22:49:16.436Z,13.13
2023-02-05T22:51:45.921Z,12.05
2023-02-05T22:54:15.612Z,13.68
2023-02-05T22:56:44.627Z,15.15
2023-02-05T22:59:15.230Z,9.68
2023-02-05T23:01:44.960Z,11.48
2023-02-05T23:04:13.492Z,11.25
2023-02-05T23:06:43.719Z,10.00
2023-02-05T23:09:15.270Z,16.10
2023-02-05T23:11:44.878Z,10.95
2023-02-05T23:14:16.230Z,15.60
2023-02-05T23:16:46.979Z,10.65
2023-02-05T23:19:18.721Z,10.55
2023-02-05T23:21:49.010Z,12.32
2023-02-05T23:24:18.389Z,14.63
2023-02-05T23:26:48.817Z,12.45
2023-02-05T23:29:19.532Z,8.73
2023-02-05T23:31:48.207Z,11.32
2023-02-05T23:34:16.861Z,12.45
2023-02-05T23:36:45.402Z,10.52
2023-02-05T23:39:13.891Z,10.85
2023-02-05T23:41:42.560Z,10.93
2023-02-05T23:44:14.019Z,8.02
2023-02-05T23:46:45.091Z,11.10
2023-02-05T23:51:42.555Z,10.07
2023-02-05T23:54:13.230Z,10.38
2023-02-05T23:56:42.153Z,11.02
2023-02-05T23:59:12.216Z,9.70
